sensor_id;sensor_type;location;lat;lon;timestamp;pressure;altitude;pressure_sealevel;temperature;humidity
9077;BME280;4574;51.072;17.174;2023-12-20T00:02:10;99598.28;;;7.66;100.00
9077;BME280;4574;51.072;17.174;2023-12-20T00:04:39;99598.56;;;7.63;100.00
9077;BME280;4574;51.072;17.174;2023-12-20T00:07:07;99596.91;;;7.62;100.00
9077;BME280;4574;51.072;17.174;2023-12-20T00:09:36;99592.91;;;7.58;100.00
9077;BME280;4574;51.072;17.174;2023-12-20T00:12:07;99596.91;;;7.62;100.00
9077;BME280;4574;51.072;17.174;2023-12-20T00:14:36;99600.50;;;7.61;100.00
9077;BME280;4574;51.072;17.174;2023-12-20T00:17:04;99599.53;;;7.62;100.00
9077;BME280;4574;51.072;17.174;2023-12-20T00:19:33;99584.03;;;7.59;100.00
9077;BME280;4574;51.072;17.174;2023-12-20T00:22:02;99586.38;;;7.62;100.00
9077;BME280;4574;51.072;17.174;2023-12-20T00:24:30;99595.25;;;7.61;100.00
9077;BME280;4574;51.072;17.174;2023-12-20T00:26:59;99584.69;;;7.61;100.00
9077;BME280;4574;51.072;17.174;2023-12-20T00:29:29;99595.53;;;7.58;100.00
9077;BME280;4574;51.072;17.174;2023-12-20T00:31:57;99586.94;;;7.56;100.00
9077;BME280;4574;51.072;17.174;2023-12-20T00:34:26;99600.78;;;7.58;100.00
9077;BME280;4574;51.072;17.174;2023-12-20T00:36:55;99599.94;;;7.58;100.00
9077;BME280;4574;51.072;17.174;2023-12-20T00:39:24;99585.56;;;7.52;100.00
9077;BME280;4574;51.072;17.174;2023-12-20T00:41:52;99573.94;;;7.45;100.00
9077;BME280;4574;51.072;17.174;2023-12-20T00:44:21;99566.44;;;7.50;100.00
9077;BME280;4574;51.072;17.174;2023-12-20T00:46:51;99576.69;;;7.53;100.00
9077;BME280;4574;51.072;17.174;2023-12-20T00:49:19;99585.28;;;7.55;100.00
9077;BME280;4574;51.072;17.174;2023-12-20T00:51:48;99576.97;;;7.50;100.00
9077;BME280;4574;51.072;17.174;2023-12-20T00:54:19;99574.63;;;7.47;100.00
9077;BME280;4574;51.072;17.174;2023-12-20T00:56:48;99570.34;;;7.46;100.00
9077;BME280;4574;51.072;17.174;2023-12-20T00:59:16;99578.91;;;7.48;100.00
9077;BME280;4574;51.072;17.174;2023-12-20T01:01:45;99572.13;;;7.46;100.00
9077;BME280;4574;51.072;17.174;2023-12-20T01:04:16;99577.38;;;7.46;100.00
9077;BME280;4574;51.072;17.174;2023-12-20T01:06:44;99570.63;;;7.43;100.00
9077;BME280;4574;51.072;17.174;2023-12-20T01:09:13;99565.34;;;7.43;100.00
9077;BME280;4574;51.072;17.174;2023-12-20T01:11:42;99566.16;;;7.44;100.00
9077;BME280;4574;51.072;17.174;2023-12-20T01:14:11;99559.53;;;7.40;100.00
9077;BME280;4574;51.072;17.174;2023-12-20T01:16:39;99563.69;;;7.42;100.00
9077;BME280;4574;51.072;17.174;2023-12-20T01:19:08;99563.69;;;7.42;100.00
9077;BME280;4574;51.072;17.174;2023-12-20T01:21:38;99554.72;;;7.35;100.00
9077;BME280;4574;51.072;17.174;2023-12-20T01:24:06;99566.75;;;7.38;100.00
9077;BME280;4574;51.072;17.174;2023-12-20T01:26:35;99563.56;;;7.34;100.00
9077;BME280;4574;51.072;17.174;2023-12-20T01:29:04;99563.88;;;7.31;100.00
9077;BME280;4574;51.072;17.174;2023-12-20T01:31:32;99564.84;;;7.30;100.00
9077;BME280;4574;51.072;17.174;2023-12-20T01:34:01;99550.69;;;7.31;100.00
9077;BME280;4574;51.072;17.174;2023-12-20T01:36:29;99552.50;;;7.31;100.00
9077;BME280;4574;51.072;17.174;2023-12-20T01:38:59;99554.31;;;7.30;100.00
9077;BME280;4574;51.072;17.174;2023-12-20T01:41:31;99545.56;;;7.30;100.00
9077;BME280;4574;51.072;17.174;2023-12-20T01:44:00;99543.09;;;7.28;100.00
9077;BME280;4574;51.072;17.174;2023-12-20T01:46:29;99545.44;;;7.31;100.00
9077;BME280;4574;51.072;17.174;2023-12-20T01:48:57;99524.56;;;7.20;100.00
9077;BME280;4574;51.072;17.174;2023-12-20T01:51:27;99527.13;;;7.30;100.00
9077;BME280;4574;51.072;17.174;2023-12-20T01:53:58;99534.22;;;7.29;100.00
9077;BME280;4574;51.072;17.174;2023-12-20T01:56:28;99527.13;;;7.30;100.00
9077;BME280;4574;51.072;17.174;2023-12-20T01:58:58;99518.56;;;7.28;100.00
9077;BME280;4574;51.072;17.174;2023-12-20T02:01:27;99518.72;;;7.26;100.00
9077;BME280;4574;51.072;17.174;2023-12-20T02:03:56;99533.53;;;7.27;100.00
9077;BME280;4574;51.072;17.174;2023-12-20T02:06:26;99512.47;;;7.27;100.00
9077;BME280;4574;51.072;17.174;2023-12-20T02:08:59;99518.72;;;7.26;100.00
9077;BME280;4574;51.072;17.174;2023-12-20T02:11:28;99507.63;;;7.23;100.00
9077;BME280;4574;51.072;17.174;2023-12-20T02:13:57;99505.41;;;7.28;100.00
9077;BME280;4574;51.072;17.174;2023-12-20T02:16:26;99519.41;;;7.28;100.00
9077;BME280;4574;51.072;17.174;2023-12-20T02:18:55;99514.13;;;7.28;100.00
9077;BME280;4574;51.072;17.174;2023-12-20T02:21:32;99519.41;;;7.28;100.00
9077;BME280;4574;51.072;17.174;2023-12-20T02:24:01;99507.91;;;7.29;100.00
9077;BME280;4574;51.072;17.174;2023-12-20T02:26:29;99509.41;;;7.32;100.00
9077;BME280;4574;51.072;17.174;2023-12-20T02:29:00;99513.56;;;7.34;100.00
9077;BME280;4574;51.072;17.174;2023-12-20T02:31:29;99504.00;;;7.33;100.00
9077;BME280;4574;51.072;17.174;2023-12-20T02:33:58;99497.47;;;7.37;100.00
9077;BME280;4574;51.072;17.174;2023-12-20T02:36:28;99502.75;;;7.37;100.00
9077;BME280;4574;51.072;17.174;2023-12-20T02:38:57;99496.09;;;7.33;100.00
9077;BME280;4574;51.072;17.174;2023-12-20T02:41:25;99500.53;;;7.33;100.00
9077;BME280;4574;51.072;17.174;2023-12-20T02:43:54;99504.00;;;7.33;100.00
9077;BME280;4574;51.072;17.174;2023-12-20T02:46:23;99500.41;;;7.34;100.00
9077;BME280;4574;51.072;17.174;2023-12-20T02:48:51;99488.50;;;7.30;100.00
9077;BME280;4574;51.072;17.174;2023-12-20T02:51:20;99496.09;;;7.33;100.00
9077;BME280;4574;51.072;17.174;2023-12-20T02:53:50;99491.53;;;7.35;100.00
9077;BME280;4574;51.072;17.174;2023-12-20T02:56:19;99487.25;;;7.34;100.00
9077;BME280;4574;51.072;17.174;2023-12-20T02:58:47;99484.44;;;7.36;100.00
9077;BME280;4574;51.072;17.174;2023-12-20T03:01:16;99476.72;;;7.34;100.00
9077;BME280;4574;51.072;17.174;2023-12-20T03:03:45;99474.66;;;7.28;100.00
9077;BME280;4574;51.072;17.174;2023-12-20T03:06:16;99460.94;;;7.25;100.00
9077;BME280;4574;51.072;17.174;2023-12-20T03:08:45;99475.34;;;7.30;100.00
9077;BME280;4574;51.072;17.174;2023-12-20T03:11:16;99464.53;;;7.24;100.00
9077;BME280;4574;51.072;17.174;2023-12-20T03:13:44;99470.66;;;7.24;100.00
9077;BME280;4574;51.072;17.174;2023-12-20T03:16:13;99473.16;;;7.16;100.00
9077;BME280;4574;51.072;17.174;2023-12-20T03:18:43;99473.06;;;7.08;100.00
9077;BME280;4574;51.072;17.174;2023-12-20T03:21:12;99469.06;;;6.95;100.00
9077;BME280;4574;51.072;17.174;2023-12-20T03:23:40;99473.34;;;6.96;100.00
9077;BME280;4574;51.072;17.174;2023-12-20T03:26:09;99471.13;;;7.01;100.00
9077;BME280;4574;51.072;17.174;2023-12-20T03:28:39;99468.50;;;7.01;100.00
9077;BME280;4574;51.072;17.174;2023-12-20T03:31:09;99474.59;;;6.92;100.00
9077;BME280;4574;51.072;17.174;2023-12-20T03:33:38;99473.78;;;6.91;100.00
9077;BME280;4574;51.072;17.174;2023-12-20T03:36:07;99474.59;;;6.92;100.00
9077;BME280;4574;51.072;17.174;2023-12-20T03:38:36;99474.47;;;6.93;100.00
9077;BME280;4574;51.072;17.174;2023-12-20T03:41:05;99468.25;;;6.94;100.00
9077;BME280;4574;51.072;17.174;2023-12-20T03:43:33;99479.88;;;6.92;100.00
9077;BME280;4574;51.072;17.174;2023-12-20T03:46:03;99486.53;;;6.86;100.00
9077;BME280;4574;51.072;17.174;2023-12-20T03:48:32;99485.69;;;6.86;100.00
9077;BME280;4574;51.072;17.174;2023-12-20T03:51:01;99483.91;;;6.86;100.00
9077;BME280;4574;51.072;17.174;2023-12-20T03:53:29;99478.78;;;6.85;100.00
9077;BME280;4574;51.072;17.174;2023-12-20T03:55:58;99485.00;;;6.84;100.00
9077;BME280;4574;51.072;17.174;2023-12-20T03:58:26;99476.03;;;6.67;100.00
9077;BME280;4574;51.072;17.174;2023-12-20T04:00:55;99472.44;;;6.68;100.00
9077;BME280;4574;51.072;17.174;2023-12-20T04:03:25;99480.47;;;6.67;100.00
9077;BME280;4574;51.072;17.174;2023-12-20T04:05:54;99471.47;;;6.60;100.00
9077;BME280;4574;51.072;17.174;2023-12-20T04:08:22;99481.03;;;6.61;100.00
9077;BME280;4574;51.072;17.174;2023-12-20T04:10:51;99488.91;;;6.61;100.00
9077;BME280;4574;51.072;17.174;2023-12-20T04:13:19;99483.78;;;6.59;100.00
9077;BME280;4574;51.072;17.174;2023-12-20T04:15:48;99478.00;;;6.56;100.00
9077;BME280;4574;51.072;17.174;2023-12-20T04:18:18;99476.59;;;6.52;100.00
9077;BME280;4574;51.072;17.174;2023-12-20T04:20:48;99483.53;;;6.53;100.00
9077;BME280;4574;51.072;17.174;2023-12-20T04:23:17;99479.34;;;6.51;100.00
9077;BME280;4574;51.072;17.174;2023-12-20T04:25:46;99481.84;;;6.43;100.00
9077;BME280;4574;51.072;17.174;2023-12-20T04:28:15;99482.84;;;6.51;100.00
9077;BME280;4574;51.072;17.174;2023-12-20T04:30:43;99475.22;;;6.48;100.00
9077;BME280;4574;51.072;17.174;2023-12-20T04:33:12;99482.16;;;6.49;100.00
9077;BME280;4574;51.072;17.174;2023-12-20T04:35:41;99477.44;;;6.43;100.00
9077;BME280;4574;51.072;17.174;2023-12-20T04:38:11;99473.56;;;6.38;100.00
9077;BME280;4574;51.072;17.174;2023-12-20T04:40:40;99476.88;;;6.40;100.00
9077;BME280;4574;51.072;17.174;2023-12-20T04:43:09;99478.53;;;6.41;100.00
9077;BME280;4574;51.072;17.174;2023-12-20T04:45:37;99467.31;;;6.39;100.00
9077;BME280;4574;51.072;17.174;2023-12-20T04:48:07;99485.19;;;6.35;100.00
9077;BME280;4574;51.072;17.174;2023-12-20T04:50:35;99473.72;;;6.36;100.00
9077;BME280;4574;51.072;17.174;2023-12-20T04:53:04;99474.38;;;6.29;100.00
9077;BME280;4574;51.072;17.174;2023-12-20T04:55:34;99463.88;;;6.19;100.00
9077;BME280;4574;51.072;17.174;2023-12-20T04:58:03;99460.56;;;6.27;100.00
9077;BME280;4574;51.072;17.174;2023-12-20T05:00:32;99465.28;;;6.23;100.00
9077;BME280;4574;51.072;17.174;2023-12-20T05:03:01;99461.09;;;6.21;100.00
9077;BME280;4574;51.072;17.174;2023-12-20T05:05:29;99466.63;;;6.18;100.00
9077;BME280;4574;51.072;17.174;2023-12-20T05:07:59;99459.72;;;6.17;100.00
9077;BME280;4574;51.072;17.174;2023-12-20T05:10:28;99457.53;;;6.12;100.00
9077;BME280;4574;51.072;17.174;2023-12-20T05:12:58;99457.53;;;6.12;100.00
9077;BME280;4574;51.072;17.174;2023-12-20T05:15:26;99469.13;;;6.10;100.00
9077;BME280;4574;51.072;17.174;2023-12-20T05:17:55;99463.06;;;6.09;100.00
9077;BME280;4574;51.072;17.174;2023-12-20T05:20:23;99457.22;;;6.06;100.00
9077;BME280;4574;51.072;17.174;2023-12-20T05:22:52;99465.53;;;6.11;100.00
9077;BME280;4574;51.072;17.174;2023-12-20T05:25:21;99466.91;;;6.15;100.00
9077;BME280;4574;51.072;17.174;2023-12-20T05:27:50;99455.28;;;6.08;100.00
9077;BME280;4574;51.072;17.174;2023-12-20T05:30:20;99454.75;;;6.14;100.00
9077;BME280;4574;51.072;17.174;2023-12-20T05:32:48;99469.69;;;6.13;100.00
9077;BME280;4574;51.072;17.174;2023-12-20T05:35:17;99472.44;;;6.12;100.00
9077;BME280;4574;51.072;17.174;2023-12-20T05:37:46;99481.44;;;6.19;100.00
9077;BME280;4574;51.072;17.174;2023-12-20T05:40:15;99478.00;;;6.18;100.00
9077;BME280;4574;51.072;17.174;2023-12-20T05:42:43;99476.19;;;6.19;100.00
9077;BME280;4574;51.072;17.174;2023-12-20T05:45:14;99474.94;;;6.23;100.00
9077;BME280;4574;51.072;17.174;2023-12-20T05:47:44;99481.72;;;6.16;100.00
9077;BME280;4574;51.072;17.174;2023-12-20T05:50:13;99482.41;;;6.18;100.00
9077;BME280;4574;51.072;17.174;2023-12-20T05:52:42;99482.28;;;6.19;100.00
9077;BME280;4574;51.072;17.174;2023-12-20T05:55:10;99479.78;;;6.18;100.00
9077;BME280;4574;51.072;17.174;2023-12-20T05:57:39;99479.50;;;6.21;100.00
9077;BME280;4574;51.072;17.174;2023-12-20T06:00:10;99476.88;;;6.21;100.00
9077;BME280;4574;51.072;17.174;2023-12-20T06:02:38;99470.81;;;6.20;100.00
9077;BME280;4574;51.072;17.174;2023-12-20T06:05:09;99464.44;;;6.23;100.00
9077;BME280;4574;51.072;17.174;2023-12-20T06:07:37;99468.59;;;6.25;100.00
9077;BME280;4574;51.072;17.174;2023-12-20T06:10:06;99474.94;;;6.23;100.00
9077;BME280;4574;51.072;17.174;2023-12-20T06:12:35;99467.75;;;6.25;100.00
9077;BME280;4574;51.072;17.174;2023-12-20T06:15:04;99468.88;;;6.22;100.00
9077;BME280;4574;51.072;17.174;2023-12-20T06:17:34;99471.34;;;6.24;100.00
9077;BME280;4574;51.072;17.174;2023-12-20T06:20:03;99467.06;;;6.23;100.00
9077;BME280;4574;51.072;17.174;2023-12-20T06:22:36;99464.97;;;6.17;100.00
9077;BME280;4574;51.072;17.174;2023-12-20T06:25:05;99471.50;;;6.22;100.00
9077;BME280;4574;51.072;17.174;2023-12-20T06:27:34;99468.72;;;6.24;100.00
9077;BME280;4574;51.072;17.174;2023-12-20T06:30:03;99470.81;;;6.20;100.00
9077;BME280;4574;51.072;17.174;2023-12-20T06:32:31;99465.66;;;6.19;100.00
9077;BME280;4574;51.072;17.174;2023-12-20T06:35:01;99474.66;;;6.16;100.00
9077;BME280;4574;51.072;17.174;2023-12-20T06:37:32;99467.47;;;6.09;100.00
9077;BME280;4574;51.072;17.174;2023-12-20T06:40:02;99471.63;;;6.11;100.00
9077;BME280;4574;51.072;17.174;2023-12-20T06:42:30;99473.25;;;6.03;100.00
9077;BME280;4574;51.072;17.174;2023-12-20T06:45:10;99491.25;;;6.07;100.00
9077;BME280;4574;51.072;17.174;2023-12-20T06:47:39;99475.34;;;6.09;100.00
9077;BME280;4574;51.072;17.174;2023-12-20T06:50:08;99486.28;;;6.14;100.00
9077;BME280;4574;51.072;17.174;2023-12-20T06:52:37;99474.09;;;6.13;100.00
9077;BME280;4574;51.072;17.174;2023-12-20T06:55:07;99482.94;;;6.12;100.00
9077;BME280;4574;51.072;17.174;2023-12-20T06:57:36;99479.63;;;6.10;100.00
9077;BME280;4574;51.072;17.174;2023-12-20T07:00:05;99480.06;;;6.05;100.00
9077;BME280;4574;51.072;17.174;2023-12-20T07:02:35;99481.56;;;6.08;100.00
9077;BME280;4574;51.072;17.174;2023-12-20T07:05:04;99489.31;;;6.09;100.00
9077;BME280;4574;51.072;17.174;2023-12-20T07:07:33;99489.31;;;6.09;100.00
9077;BME280;4574;51.072;17.174;2023-12-20T07:10:02;99483.53;;;6.15;100.00
9077;BME280;4574;51.072;17.174;2023-12-20T07:12:32;99480.91;;;6.15;100.00
9077;BME280;4574;51.072;17.174;2023-12-20T07:15:03;99482.25;;;6.10;100.00
9077;BME280;4574;51.072;17.174;2023-12-20T07:17:32;99488.09;;;6.13;100.00
9077;BME280;4574;51.072;17.174;2023-12-20T07:20:01;99494.84;;;6.16;100.00
9077;BME280;4574;51.072;17.174;2023-12-20T07:22:31;99495.38;;;6.10;100.00
9077;BME280;4574;51.072;17.174;2023-12-20T07:25:00;99490.97;;;6.10;100.00
9077;BME280;4574;51.072;17.174;2023-12-20T07:27:29;99498.44;;;6.05;100.00
9077;BME280;4574;51.072;17.174;2023-12-20T07:29:59;99493.03;;;6.07;100.00
9077;BME280;4574;51.072;17.174;2023-12-20T07:32:27;99502.56;;;6.08;100.00
9077;BME280;4574;51.072;17.174;2023-12-20T07:34:56;99491.38;;;6.06;100.00
9077;BME280;4574;51.072;17.174;2023-12-20T07:37:25;99499.53;;;6.03;100.00
9077;BME280;4574;51.072;17.174;2023-12-20T07:39:53;99501.88;;;6.06;100.00
9077;BME280;4574;51.072;17.174;2023-12-20T07:42:22;99498.16;;;6.08;100.00
9077;BME280;4574;51.072;17.174;2023-12-20T07:44:50;99501.63;;;6.09;100.00
9077;BME280;4574;51.072;17.174;2023-12-20T07:47:20;99503.81;;;6.04;100.00
9077;BME280;4574;51.072;17.174;2023-12-20T07:49:49;99502.44;;;6.00;100.00
9077;BME280;4574;51.072;17.174;2023-12-20T07:52:19;99505.47;;;6.05;100.00
9077;BME280;4574;51.072;17.174;2023-12-20T07:54:49;99510.03;;;6.03;100.00
9077;BME280;4574;51.072;17.174;2023-12-20T07:57:17;99510.19;;;6.01;100.00
9077;BME280;4574;51.072;17.174;2023-12-20T07:59:46;99510.03;;;6.03;100.00
9077;BME280;4574;51.072;17.174;2023-12-20T08:02:15;99505.75;;;6.02;100.00
9077;BME280;4574;51.072;17.174;2023-12-20T08:04:45;99511.00;;;6.02;100.00
9077;BME280;4574;51.072;17.174;2023-12-20T08:07:13;99512.66;;;6.03;100.00
9077;BME280;4574;51.072;17.174;2023-12-20T08:09:42;99506.72;;;6.01;100.00
9077;BME280;4574;51.072;17.174;2023-12-20T08:12:11;99508.38;;;6.02;100.00
9077;BME280;4574;51.072;17.174;2023-12-20T08:14:40;99498.69;;;5.93;100.00
9077;BME280;4574;51.072;17.174;2023-12-20T08:17:08;99503.94;;;5.93;100.00
9077;BME280;4574;51.072;17.174;2023-12-20T08:19:37;99503.94;;;5.93;100.00
9077;BME280;4574;51.072;17.174;2023-12-20T08:22:07;99515.84;;;5.97;100.00
9077;BME280;4574;51.072;17.174;2023-12-20T08:24:36;99505.31;;;5.97;100.00
9077;BME280;4574;51.072;17.174;2023-12-20T08:27:04;99509.75;;;5.96;100.00
9077;BME280;4574;51.072;17.174;2023-12-20T08:29:33;99518.03;;;5.92;100.00
9077;BME280;4574;51.072;17.174;2023-12-20T08:32:02;99524.69;;;5.96;100.00
9077;BME280;4574;51.072;17.174;2023-12-20T08:34:30;99514.16;;;5.96;100.00
9077;BME280;4574;51.072;17.174;2023-12-20T08:36:59;99519.69;;;5.93;100.00
9077;BME280;4574;51.072;17.174;2023-12-20T08:39:29;99511.13;;;5.91;100.00
9077;BME280;4574;51.072;17.174;2023-12-20T08:42:00;99516.63;;;5.88;100.00
9077;BME280;4574;51.072;17.174;2023-12-20T08:44:29;99519.81;;;5.91;100.00
9077;BME280;4574;51.072;17.174;2023-12-20T08:46:58;99525.22;;;5.90;100.00
9077;BME280;4574;51.072;17.174;2023-12-20T08:49:27;99531.16;;;5.92;100.00
9077;BME280;4574;51.072;17.174;2023-12-20T08:51:55;99532.41;;;5.88;100.00
9077;BME280;4574;51.072;17.174;2023-12-20T08:54:24;99534.88;;;5.89;100.00
9077;BME280;4574;51.072;17.174;2023-12-20T08:56:54;99538.47;;;5.88;100.00
9077;BME280;4574;51.072;17.174;2023-12-20T08:59:23;99534.06;;;5.89;100.00
9077;BME280;4574;51.072;17.174;2023-12-20T09:01:51;99536.25;;;5.93;100.00
9077;BME280;4574;51.072;17.174;2023-12-20T09:04:22;99541.50;;;5.93;100.00
9077;BME280;4574;51.072;17.174;2023-12-20T09:06:50;99539.03;;;5.92;100.00
9077;BME280;4574;51.072;17.174;2023-12-20T09:09:19;99536.16;;;5.95;100.00
9077;BME280;4574;51.072;17.174;2023-12-20T09:11:48;99536.16;;;5.95;100.00
9077;BME280;4574;51.072;17.174;2023-12-20T09:14:20;99545.25;;;5.91;100.00
9077;BME280;4574;51.072;17.174;2023-12-20T09:16:48;99534.59;;;5.92;100.00
9077;BME280;4574;51.072;17.174;2023-12-20T09:19:18;99539.84;;;5.92;100.00
9077;BME280;4574;51.072;17.174;2023-12-20T09:21:47;99538.88;;;5.93;100.00
9077;BME280;4574;51.072;17.174;2023-12-20T09:24:16;99545.94;;;5.93;100.00
9077;BME280;4574;51.072;17.174;2023-12-20T09:26:44;99549.53;;;5.92;100.00
9077;BME280;4574;51.072;17.174;2023-12-20T09:29:13;99545.09;;;5.92;100.00
9077;BME280;4574;51.072;17.174;2023-12-20T09:31:43;99548.31;;;5.96;100.00
9077;BME280;4574;51.072;17.174;2023-12-20T09:34:15;99560.75;;;5.94;100.00
9077;BME280;4574;51.072;17.174;2023-12-20T09:36:44;99553.84;;;5.93;100.00
9077;BME280;4574;51.072;17.174;2023-12-20T09:39:14;99549.53;;;5.92;100.00
9077;BME280;4574;51.072;17.174;2023-12-20T09:41:44;99541.66;;;5.92;100.00
9077;BME280;4574;51.072;17.174;2023-12-20T09:44:15;99552.03;;;5.93;100.00
9077;BME280;4574;51.072;17.174;2023-12-20T09:46:49;99549.28;;;5.95;100.00
9077;BME280;4574;51.072;17.174;2023-12-20T09:49:18;99548.44;;;5.94;100.00
9077;BME280;4574;51.072;17.174;2023-12-20T09:51:48;99544.88;;;5.95;100.00
9077;BME280;4574;51.072;17.174;2023-12-20T09:54:18;99532.28;;;5.99;100.00
9077;BME280;4574;51.072;17.174;2023-12-20T09:56:47;99525.94;;;6.01;100.00
9077;BME280;4574;51.072;17.174;2023-12-20T09:59:16;99533.69;;;6.03;100.00
9077;BME280;4574;51.072;17.174;2023-12-20T10:01:46;99521.50;;;6.02;100.00
9077;BME280;4574;51.072;17.174;2023-12-20T10:04:15;99520.28;;;6.06;100.00
9077;BME280;4574;51.072;17.174;2023-12-20T10:06:47;99522.50;;;6.10;100.00
9077;BME280;4574;51.072;17.174;2023-12-20T10:09:15;99525.81;;;6.12;100.00
9077;BME280;4574;51.072;17.174;2023-12-20T10:11:44;99513.94;;;6.18;100.00
9077;BME280;4574;51.072;17.174;2023-12-20T10:14:13;99522.78;;;6.17;100.00
9077;BME280;4574;51.072;17.174;2023-12-20T10:16:42;99520.72;;;6.20;100.00
9077;BME280;4574;51.072;17.174;2023-12-20T10:19:12;99514.09;;;6.16;100.00
9077;BME280;4574;51.072;17.174;2023-12-20T10:21:45;99520.84;;;6.19;100.00
9077;BME280;4574;51.072;17.174;2023-12-20T10:24:17;99512.69;;;6.22;100.00
9077;BME280;4574;51.072;17.174;2023-12-20T10:26:46;99509.38;;;6.20;100.00
9077;BME280;4574;51.072;17.174;2023-12-20T10:29:15;99514.50;;;6.21;100.00
9077;BME280;4574;51.072;17.174;2023-12-20T10:31:43;99524.31;;;6.29;100.00
9077;BME280;4574;51.072;17.174;2023-12-20T10:34:14;99513.09;;;6.27;100.00
9077;BME280;4574;51.072;17.174;2023-12-20T10:36:43;99516.44;;;6.29;100.00
9077;BME280;4574;51.072;17.174;2023-12-20T10:39:14;99497.19;;;6.19;100.00
9077;BME280;4574;51.072;17.174;2023-12-20T10:41:44;99512.56;;;6.23;100.00
9077;BME280;4574;51.072;17.174;2023-12-20T10:44:13;99523.78;;;6.25;100.00
9077;BME280;4574;51.072;17.174;2023-12-20T10:46:43;99518.63;;;6.24;100.00
9077;BME280;4574;51.072;17.174;2023-12-20T10:49:20;99523.50;;;6.28;100.00
9077;BME280;4574;51.072;17.174;2023-12-20T10:51:49;99525.00;;;6.31;100.00
9077;BME280;4574;51.072;17.174;2023-12-20T10:54:19;99532.88;;;6.31;100.00
9077;BME280;4574;51.072;17.174;2023-12-20T10:56:49;99519.75;;;6.31;100.00
9077;BME280;4574;51.072;17.174;2023-12-20T10:59:20;99525.28;;;6.28;100.00
9077;BME280;4574;51.072;17.174;2023-12-20T11:01:50;99512.03;;;6.29;100.00
9077;BME280;4574;51.072;17.174;2023-12-20T11:04:23;99512.56;;;6.33;100.00
9077;BME280;4574;51.072;17.174;2023-12-20T11:06:58;99508.16;;;6.33;100.00
9077;BME280;4574;51.072;17.174;2023-12-20T11:09:34;99504.00;;;6.40;100.00
9077;BME280;4574;51.072;17.174;2023-12-20T11:12:10;99501.22;;;6.42;100.00
9077;BME280;4574;51.072;17.174;2023-12-20T11:14:43;99494.59;;;6.47;100.00
9077;BME280;4574;51.072;17.174;2023-12-20T11:17:14;99498.72;;;6.50;100.00
9077;BME280;4574;51.072;17.174;2023-12-20T11:20:06;99490.72;;;6.51;100.00
9077;BME280;4574;51.072;17.174;2023-12-20T11:22:38;99491.69;;;6.50;100.00
9077;BME280;4574;51.072;17.174;2023-12-20T11:25:10;99491.66;;;6.59;100.00
9077;BME280;4574;51.072;17.174;2023-12-20T11:27:41;99485.03;;;6.65;100.00
9077;BME280;4574;51.072;17.174;2023-12-20T11:30:14;99476.03;;;6.67;100.00
9077;BME280;4574;51.072;17.174;2023-12-20T11:32:46;99477.81;;;6.76;100.00
9077;BME280;4574;51.072;17.174;2023-12-20T11:35:19;99469.09;;;6.85;100.00
9077;BME280;4574;51.072;17.174;2023-12-20T11:37:51;99473.22;;;6.88;100.00
9077;BME280;4574;51.072;17.174;2023-12-20T11:40:20;99466.72;;;6.92;100.00
9077;BME280;4574;51.072;17.174;2023-12-20T11:42:49;99472.94;;;7.00;100.00
9077;BME280;4574;51.072;17.174;2023-12-20T11:45:19;99460.47;;;7.02;100.00
9077;BME280;4574;51.072;17.174;2023-12-20T11:47:50;99454.63;;;7.08;100.00
9077;BME280;4574;51.072;17.174;2023-12-20T11:50:23;99450.75;;;7.12;100.00
9077;BME280;4574;51.072;17.174;2023-12-20T11:52:53;99438.13;;;7.16;100.00
9077;BME280;4574;51.072;17.174;2023-12-20T11:55:22;99437.53;;;7.22;100.00
9077;BME280;4574;51.072;17.174;2023-12-20T11:57:52;99441.53;;;7.26;100.00
9077;BME280;4574;51.072;17.174;2023-12-20T12:00:21;99433.50;;;7.27;100.00
9077;BME280;4574;51.072;17.174;2023-12-20T12:02:57;99432.38;;;7.30;100.00
9077;BME280;4574;51.072;17.174;2023-12-20T12:05:27;99409.16;;;7.16;100.00
9077;BME280;4574;51.072;17.174;2023-12-20T12:07:56;99426.31;;;7.29;100.00
9077;BME280;4574;51.072;17.174;2023-12-20T12:10:24;99429.31;;;7.34;100.00
9077;BME280;4574;51.072;17.174;2023-12-20T12:12:53;99411.59;;;7.36;100.00
9077;BME280;4574;51.072;17.174;2023-12-20T12:15:22;99422.13;;;7.36;100.00
9077;BME280;4574;51.072;17.174;2023-12-20T12:17:54;99417.94;;;7.34;100.00
9077;BME280;4574;51.072;17.174;2023-12-20T12:20:23;99417.25;;;7.32;100.00
9077;BME280;4574;51.072;17.174;2023-12-20T12:23:00;99397.72;;;7.34;100.00
9077;BME280;4574;51.072;17.174;2023-12-20T12:25:30;99394.81;;;7.37;100.00
9077;BME280;4574;51.072;17.174;2023-12-20T12:27:59;99387.50;;;7.31;100.00
9077;BME280;4574;51.072;17.174;2023-12-20T12:30:28;99393.16;;;7.36;100.00
9077;BME280;4574;51.072;17.174;2023-12-20T12:33:05;99397.00;;;7.42;100.00
9077;BME280;4574;51.072;17.174;2023-12-20T12:35:34;99388.28;;;7.41;100.00
9077;BME280;4574;51.072;17.174;2023-12-20T12:38:07;99389.94;;;7.42;100.00
9077;BME280;4574;51.072;17.174;2023-12-20T12:40:36;99382.31;;;7.39;100.00
9077;BME280;4574;51.072;17.174;2023-12-20T12:43:04;99374.13;;;7.42;100.00
9077;BME280;4574;51.072;17.174;2023-12-20T12:45:34;99371.94;;;7.38;100.00
9077;BME280;4574;51.072;17.174;2023-12-20T12:48:03;99373.00;;;7.45;100.00
9077;BME280;4574;51.072;17.174;2023-12-20T12:50:32;99369.16;;;7.39;100.00
9077;BME280;4574;51.072;17.174;2023-12-20T12:53:01;99371.94;;;7.38;100.00
9077;BME280;4574;51.072;17.174;2023-12-20T12:55:31;99365.84;;;7.37;100.00
9077;BME280;4574;51.072;17.174;2023-12-20T12:58:00;99369.75;;;7.33;100.00
9077;BME280;4574;51.072;17.174;2023-12-20T13:00:29;99356.88;;;7.30;100.00
9077;BME280;4574;51.072;17.174;2023-12-20T13:02:57;99381.25;;;7.32;100.00
9077;BME280;4574;51.072;17.174;2023-12-20T13:05:26;99378.91;;;7.29;100.00
9077;BME280;4574;51.072;17.174;2023-12-20T13:07:56;99380.56;;;7.30;100.00
9077;BME280;4574;51.072;17.174;2023-12-20T13:10:25;99372.00;;;7.28;100.00
9077;BME280;4574;51.072;17.174;2023-12-20T13:12:55;99373.78;;;7.28;100.00
9077;BME280;4574;51.072;17.174;2023-12-20T13:15:24;99375.03;;;7.33;100.00
9077;BME280;4574;51.072;17.174;2023-12-20T13:17:52;99366.81;;;7.36;100.00
9077;BME280;4574;51.072;17.174;2023-12-20T13:20:21;99352.41;;;7.40;100.00
9077;BME280;4574;51.072;17.174;2023-12-20T13:22:50;99353.66;;;7.36;100.00